sensor_id;sensor_type;location;lat;lon;timestamp;pressure;altitude;pressure_sealevel;temperature;humidity
48810;BME280;40070;47.322;18.784;2023-03-25T00:00:41;994.07;;;16.87;53.32
48810;BME280;40070;47.322;18.784;2023-03-25T00:02:42;994.07;;;17.01;52.97
48810;BME280;40070;47.322;18.784;2023-03-25T00:04:43;994.09;;;17.07;52.90
48810;BME280;40070;47.322;18.784;2023-03-25T00:06:44;994.10;;;17.23;52.40
48810;BME280;40070;47.322;18.784;2023-03-25T00:08:45;994.14;;;17.14;52.56
48810;BME280;40070;47.322;18.784;2023-03-25T00:10:50;994.19;;;17.18;52.50
48810;BME280;40070;47.322;18.784;2023-03-25T00:12:51;994.21;;;17.03;52.82
48810;BME280;40070;47.322;18.784;2023-03-25T00:14:52;994.23;;;17.08;52.69
48810;BME280;40070;47.322;18.784;2023-03-25T00:16:53;994.21;;;17.05;52.72
48810;BME280;40070;47.322;18.784;2023-03-25T00:18:54;994.23;;;17.14;52.61
48810;BME280;40070;47.322;18.784;2023-03-25T00:20:55;994.28;;;17.10;53.10
48810;BME280;40070;47.322;18.784;2023-03-25T00:22:56;994.32;;;16.87;53.42
48810;BME280;40070;47.322;18.784;2023-03-25T00:24:57;994.33;;;16.93;53.13
48810;BME280;40070;47.322;18.784;2023-03-25T00:26:57;994.27;;;16.87;53.36
48810;BME280;40070;47.322;18.784;2023-03-25T00:28:58;994.28;;;16.75;53.57
48810;BME280;40070;47.322;18.784;2023-03-25T00:31:00;994.25;;;16.85;53.20
48810;BME280;40070;47.322;18.784;2023-03-25T00:33:01;994.21;;;17.03;53.01
48810;BME280;40070;47.322;18.784;2023-03-25T00:35:02;994.24;;;17.20;52.65
48810;BME280;40070;47.322;18.784;2023-03-25T00:37:03;994.25;;;17.25;52.95
48810;BME280;40070;47.322;18.784;2023-03-25T00:39:04;994.23;;;16.94;53.17
48810;BME280;40070;47.322;18.784;2023-03-25T00:41:09;994.24;;;16.87;53.39
48810;BME280;40070;47.322;18.784;2023-03-25T00:43:09;994.23;;;17.12;52.77
48810;BME280;40070;47.322;18.784;2023-03-25T00:45:11;994.23;;;17.25;52.40
48810;BME280;40070;47.322;18.784;2023-03-25T00:47:11;994.25;;;17.02;52.94
48810;BME280;40070;47.322;18.784;2023-03-25T00:49:12;994.27;;;17.04;52.84
48810;BME280;40070;47.322;18.784;2023-03-25T00:51:13;994.22;;;17.06;52.94
48810;BME280;40070;47.322;18.784;2023-03-25T00:53:14;994.16;;;17.04;52.66
48810;BME280;40070;47.322;18.784;2023-03-25T00:55:15;994.14;;;16.77;53.28
48810;BME280;40070;47.322;18.784;2023-03-25T00:57:16;994.20;;;16.79;53.22
48810;BME280;40070;47.322;18.784;2023-03-25T00:59:17;994.22;;;16.58;53.72
48810;BME280;40070;47.322;18.784;2023-03-25T01:01:19;994.16;;;16.48;54.11
48810;BME280;40070;47.322;18.784;2023-03-25T01:03:24;994.16;;;16.37;54.31
48810;BME280;40070;47.322;18.784;2023-03-25T01:05:25;994.25;;;16.21;54.55
48810;BME280;40070;47.322;18.784;2023-03-25T01:07:25;994.24;;;16.15;54.96
48810;BME280;40070;47.322;18.784;2023-03-25T01:09:26;994.29;;;16.04;55.95
48810;BME280;40070;47.322;18.784;2023-03-25T01:11:28;994.31;;;15.70;57.20
48810;BME280;40070;47.322;18.784;2023-03-25T01:13:29;994.31;;;15.66;58.14
48810;BME280;40070;47.322;18.784;2023-03-25T01:15:30;994.32;;;15.91;58.00
48810;BME280;40070;47.322;18.784;2023-03-25T01:17:32;994.37;;;15.85;58.68
48810;BME280;40070;47.322;18.784;2023-03-25T01:19:33;994.39;;;15.76;59.17
48810;BME280;40070;47.322;18.784;2023-03-25T01:21:34;994.38;;;15.65;59.71
48810;BME280;40070;47.322;18.784;2023-03-25T01:23:35;994.32;;;15.58;60.07
48810;BME280;40070;47.322;18.784;2023-03-25T01:25:36;994.28;;;15.72;59.64
48810;BME280;40070;47.322;18.784;2023-03-25T01:27:37;994.32;;;15.69;59.76
48810;BME280;40070;47.322;18.784;2023-03-25T01:29:38;994.33;;;15.62;60.04
48810;BME280;40070;47.322;18.784;2023-03-25T01:31:39;994.39;;;15.56;60.28
48810;BME280;40070;47.322;18.784;2023-03-25T01:33:40;994.43;;;15.52;60.51
48810;BME280;40070;47.322;18.784;2023-03-25T01:35:41;994.41;;;15.49;60.73
48810;BME280;40070;47.322;18.784;2023-03-25T01:37:42;994.39;;;15.45;60.60
48810;BME280;40070;47.322;18.784;2023-03-25T01:39:42;994.47;;;15.47;60.40
48810;BME280;40070;47.322;18.784;2023-03-25T01:41:44;994.48;;;15.39;60.47
48810;BME280;40070;47.322;18.784;2023-03-25T01:44:08;994.51;;;15.26;60.88
48810;BME280;40070;47.322;18.784;2023-03-25T01:46:12;994.52;;;15.08;61.22
48810;BME280;40070;47.322;18.784;2023-03-25T01:48:15;994.54;;;14.90;61.84
48810;BME280;40070;47.322;18.784;2023-03-25T01:50:17;994.52;;;14.94;61.95
48810;BME280;40070;47.322;18.784;2023-03-25T01:52:20;994.62;;;14.90;62.55
48810;BME280;40070;47.322;18.784;2023-03-25T01:54:23;994.52;;;14.96;62.70
48810;BME280;40070;47.322;18.784;2023-03-25T01:56:26;994.53;;;14.79;63.49
48810;BME280;40070;47.322;18.784;2023-03-25T01:58:28;994.49;;;14.70;64.11
48810;BME280;40070;47.322;18.784;2023-03-25T02:00:30;994.62;;;14.65;64.51
48810;BME280;40070;47.322;18.784;2023-03-25T02:02:31;994.58;;;14.66;64.79
48810;BME280;40070;47.322;18.784;2023-03-25T02:04:49;994.56;;;14.75;64.97
48810;BME280;40070;47.322;18.784;2023-03-25T02:06:52;994.60;;;14.59;65.97
48810;BME280;40070;47.322;18.784;2023-03-25T02:08:54;994.59;;;14.68;66.08
48810;BME280;40070;47.322;18.784;2023-03-25T02:10:56;994.63;;;14.57;66.61
48810;BME280;40070;47.322;18.784;2023-03-25T02:12:57;994.59;;;14.58;66.86
48810;BME280;40070;47.322;18.784;2023-03-25T02:14:59;994.52;;;14.50;67.54
48810;BME280;40070;47.322;18.784;2023-03-25T02:21:43;994.40;;;14.37;68.77
48810;BME280;40070;47.322;18.784;2023-03-25T02:24:01;994.35;;;14.15;69.45
48810;BME280;40070;47.322;18.784;2023-03-25T02:28:30;994.32;;;14.13;69.65
48810;BME280;40070;47.322;18.784;2023-03-25T02:30:36;994.33;;;14.21;69.39
48810;BME280;40070;47.322;18.784;2023-03-25T02:33:00;994.29;;;14.19;69.37
48810;BME280;40070;47.322;18.784;2023-03-25T02:35:13;994.32;;;14.23;69.08
48810;BME280;40070;47.322;18.784;2023-03-25T02:39:54;994.22;;;13.99;68.87
48810;BME280;40070;47.322;18.784;2023-03-25T02:44:13;994.25;;;14.04;68.84
48810;BME280;40070;47.322;18.784;2023-03-25T02:46:17;994.21;;;14.01;68.56
48810;BME280;40070;47.322;18.784;2023-03-25T02:48:26;994.25;;;14.14;68.05
48810;BME280;40070;47.322;18.784;2023-03-25T02:50:30;994.20;;;14.18;67.85
48810;BME280;40070;47.322;18.784;2023-03-25T02:52:42;994.24;;;14.04;68.18
48810;BME280;40070;47.322;18.784;2023-03-25T02:54:44;994.26;;;14.00;68.54
48810;BME280;40070;47.322;18.784;2023-03-25T02:56:46;994.30;;;13.93;68.69
48810;BME280;40070;47.322;18.784;2023-03-25T02:58:49;994.30;;;13.85;68.64
48810;BME280;40070;47.322;18.784;2023-03-25T03:00:51;994.34;;;13.86;68.96
48810;BME280;40070;47.322;18.784;2023-03-25T03:02:54;994.38;;;13.80;69.85
48810;BME280;40070;47.322;18.784;2023-03-25T03:04:55;994.46;;;13.81;70.08
48810;BME280;40070;47.322;18.784;2023-03-25T03:06:56;994.43;;;13.67;70.93
48810;BME280;40070;47.322;18.784;2023-03-25T03:09:16;994.46;;;13.56;71.27
48810;BME280;40070;47.322;18.784;2023-03-25T03:11:24;994.46;;;13.68;71.34
48810;BME280;40070;47.322;18.784;2023-03-25T03:16:11;994.59;;;13.24;73.78
48810;BME280;40070;47.322;18.784;2023-03-25T03:18:25;994.62;;;13.16;74.29
48810;BME280;40070;47.322;18.784;2023-03-25T03:20:32;994.61;;;13.22;74.08
48810;BME280;40070;47.322;18.784;2023-03-25T03:22:41;994.64;;;13.08;75.22
48810;BME280;40070;47.322;18.784;2023-03-25T03:24:49;994.69;;;13.11;75.40
48810;BME280;40070;47.322;18.784;2023-03-25T03:26:56;994.73;;;13.07;75.67
48810;BME280;40070;47.322;18.784;2023-03-25T03:29:02;994.70;;;13.04;76.21
48810;BME280;40070;47.322;18.784;2023-03-25T03:31:10;994.69;;;13.13;76.17
48810;BME280;40070;47.322;18.784;2023-03-25T03:33:24;994.71;;;13.26;75.95
48810;BME280;40070;47.322;18.784;2023-03-25T03:35:27;994.64;;;13.50;74.95
48810;BME280;40070;47.322;18.784;2023-03-25T03:37:39;994.67;;;13.55;74.62
48810;BME280;40070;47.322;18.784;2023-03-25T03:39:41;994.73;;;13.31;75.74
48810;BME280;40070;47.322;18.784;2023-03-25T03:41:43;994.76;;;13.55;75.02
48810;BME280;40070;47.322;18.784;2023-03-25T03:44:19;994.81;;;13.41;75.20
48810;BME280;40070;47.322;18.784;2023-03-25T03:46:05;994.82;;;13.52;75.24
48810;BME280;40070;47.322;18.784;2023-03-25T03:48:09;994.91;;;13.41;74.82
48810;BME280;40070;47.322;18.784;2023-03-25T03:50:16;994.93;;;13.62;74.55
48810;BME280;40070;47.322;18.784;2023-03-25T03:52:23;994.91;;;13.48;74.43
48810;BME280;40070;47.322;18.784;2023-03-25T03:54:26;994.99;;;13.73;73.91
48810;BME280;40070;47.322;18.784;2023-03-25T03:56:41;995.02;;;13.63;74.48
48810;BME280;40070;47.322;18.784;2023-03-25T03:58:44;995.01;;;13.62;74.71
48810;BME280;40070;47.322;18.784;2023-03-25T04:00:58;995.01;;;13.50;74.75
48810;BME280;40070;47.322;18.784;2023-03-25T04:03:04;995.05;;;13.58;74.85
48810;BME280;40070;47.322;18.784;2023-03-25T04:05:06;995.10;;;13.57;74.65
48810;BME280;40070;47.322;18.784;2023-03-25T04:07:13;995.10;;;13.44;74.54
48810;BME280;40070;47.322;18.784;2023-03-25T04:09:18;995.10;;;13.35;75.17
48810;BME280;40070;47.322;18.784;2023-03-25T04:11:22;995.08;;;13.28;75.18
48810;BME280;40070;47.322;18.784;2023-03-25T04:13:25;995.13;;;13.32;74.82
48810;BME280;40070;47.322;18.784;2023-03-25T04:15:28;995.13;;;13.30;74.74
48810;BME280;40070;47.322;18.784;2023-03-25T04:17:29;995.14;;;13.20;74.68
48810;BME280;40070;47.322;18.784;2023-03-25T04:19:31;995.15;;;13.11;74.28
48810;BME280;40070;47.322;18.784;2023-03-25T04:21:32;995.18;;;13.17;74.48
48810;BME280;40070;47.322;18.784;2023-03-25T04:23:33;995.21;;;13.02;74.43
48810;BME280;40070;47.322;18.784;2023-03-25T04:25:35;995.22;;;13.23;73.66
48810;BME280;40070;47.322;18.784;2023-03-25T04:27:36;995.23;;;13.21;73.31
48810;BME280;40070;47.322;18.784;2023-03-25T04:29:37;995.22;;;13.22;72.65
48810;BME280;40070;47.322;18.784;2023-03-25T04:31:38;995.23;;;13.28;72.45
48810;BME280;40070;47.322;18.784;2023-03-25T04:33:40;995.24;;;13.31;72.38
48810;BME280;40070;47.322;18.784;2023-03-25T04:35:41;995.31;;;13.20;71.95
48810;BME280;40070;47.322;18.784;2023-03-25T04:37:42;995.29;;;13.39;71.28
48810;BME280;40070;47.322;18.784;2023-03-25T04:39:43;995.32;;;13.49;71.49
48810;BME280;40070;47.322;18.784;2023-03-25T04:41:44;995.32;;;13.31;71.74
48810;BME280;40070;47.322;18.784;2023-03-25T04:43:45;995.30;;;13.25;71.64
48810;BME280;40070;47.322;18.784;2023-03-25T04:45:46;995.35;;;13.48;70.27
48810;BME280;40070;47.322;18.784;2023-03-25T04:47:47;995.40;;;13.43;69.37
48810;BME280;40070;47.322;18.784;2023-03-25T04:49:48;995.41;;;13.32;69.99
48810;BME280;40070;47.322;18.784;2023-03-25T04:51:50;995.46;;;13.22;70.44
48810;BME280;40070;47.322;18.784;2023-03-25T04:53:51;995.48;;;13.30;70.29
48810;BME280;40070;47.322;18.784;2023-03-25T04:55:52;995.42;;;13.01;71.07
48810;BME280;40070;47.322;18.784;2023-03-25T04:57:53;995.50;;;12.93;71.29
48810;BME280;40070;47.322;18.784;2023-03-25T04:59:54;995.48;;;13.13;71.24
48810;BME280;40070;47.322;18.784;2023-03-25T05:01:55;995.47;;;13.06;70.81
48810;BME280;40070;47.322;18.784;2023-03-25T05:03:59;995.50;;;13.28;70.83
48810;BME280;40070;47.322;18.784;2023-03-25T05:06:00;995.56;;;13.24;70.70
48810;BME280;40070;47.322;18.784;2023-03-25T05:08:01;995.58;;;13.20;70.70
48810;BME280;40070;47.322;18.784;2023-03-25T05:10:02;995.61;;;13.30;70.07
48810;BME280;40070;47.322;18.784;2023-03-25T05:12:03;995.64;;;13.25;70.45
48810;BME280;40070;47.322;18.784;2023-03-25T05:14:04;995.64;;;13.21;70.97
48810;BME280;40070;47.322;18.784;2023-03-25T05:16:06;995.69;;;13.17;71.00
48810;BME280;40070;47.322;18.784;2023-03-25T05:18:07;995.65;;;13.26;70.97
48810;BME280;40070;47.322;18.784;2023-03-25T05:20:09;995.65;;;13.44;70.24
48810;BME280;40070;47.322;18.784;2023-03-25T05:22:10;995.61;;;13.33;70.47
48810;BME280;40070;47.322;18.784;2023-03-25T05:24:12;995.58;;;13.55;69.63
48810;BME280;40070;47.322;18.784;2023-03-25T05:26:12;995.55;;;13.14;70.52
48810;BME280;40070;47.322;18.784;2023-03-25T05:28:14;995.56;;;13.18;70.94
48810;BME280;40070;47.322;18.784;2023-03-25T05:30:15;995.59;;;13.20;71.30
48810;BME280;40070;47.322;18.784;2023-03-25T05:32:15;995.56;;;13.26;71.03
48810;BME280;40070;47.322;18.784;2023-03-25T05:34:16;995.59;;;13.36;70.64
48810;BME280;40070;47.322;18.784;2023-03-25T05:36:17;995.63;;;13.34;70.40
48810;BME280;40070;47.322;18.784;2023-03-25T05:38:18;995.61;;;13.33;70.68
48810;BME280;40070;47.322;18.784;2023-03-25T05:40:19;995.60;;;13.38;70.63
48810;BME280;40070;47.322;18.784;2023-03-25T05:42:21;995.63;;;13.40;70.51
48810;BME280;40070;47.322;18.784;2023-03-25T05:44:22;995.69;;;13.33;70.89
48810;BME280;40070;47.322;18.784;2023-03-25T05:46:23;995.67;;;13.26;70.83
48810;BME280;40070;47.322;18.784;2023-03-25T05:48:24;995.71;;;13.19;71.48
48810;BME280;40070;47.322;18.784;2023-03-25T05:50:25;995.67;;;13.27;71.21
48810;BME280;40070;47.322;18.784;2023-03-25T05:52:26;995.74;;;13.16;71.03
48810;BME280;40070;47.322;18.784;2023-03-25T05:54:26;995.71;;;13.38;70.36
48810;BME280;40070;47.322;18.784;2023-03-25T05:56:28;995.76;;;13.41;70.58
48810;BME280;40070;47.322;18.784;2023-03-25T05:58:29;995.76;;;13.33;70.89
48810;BME280;40070;47.322;18.784;2023-03-25T06:00:29;995.78;;;13.37;71.06
48810;BME280;40070;47.322;18.784;2023-03-25T06:02:30;995.78;;;13.39;70.17
48810;BME280;40070;47.322;18.784;2023-03-25T06:04:32;995.79;;;13.38;70.61
48810;BME280;40070;47.322;18.784;2023-03-25T06:06:33;995.78;;;13.44;70.23
48810;BME280;40070;47.322;18.784;2023-03-25T06:08:34;995.83;;;13.50;70.45
48810;BME280;40070;47.322;18.784;2023-03-25T06:10:35;995.85;;;13.54;70.06
48810;BME280;40070;47.322;18.784;2023-03-25T06:12:36;995.83;;;13.59;69.21
48810;BME280;40070;47.322;18.784;2023-03-25T06:14:37;995.80;;;13.63;69.03
48810;BME280;40070;47.322;18.784;2023-03-25T06:16:38;995.81;;;13.61;69.44
48810;BME280;40070;47.322;18.784;2023-03-25T06:18:39;995.82;;;13.71;69.30
48810;BME280;40070;47.322;18.784;2023-03-25T06:20:40;995.87;;;13.68;69.16
48810;BME280;40070;47.322;18.784;2023-03-25T06:22:44;995.91;;;13.74;69.15
48810;BME280;40070;47.322;18.784;2023-03-25T06:24:45;995.96;;;13.77;68.78
48810;BME280;40070;47.322;18.784;2023-03-25T06:26:45;996.02;;;13.96;68.73
48810;BME280;40070;47.322;18.784;2023-03-25T06:28:46;996.04;;;13.96;68.15
48810;BME280;40070;47.322;18.784;2023-03-25T06:30:47;996.05;;;13.96;68.04
48810;BME280;40070;47.322;18.784;2023-03-25T06:32:48;996.08;;;13.79;68.52
48810;BME280;40070;47.322;18.784;2023-03-25T06:34:49;996.07;;;14.18;67.87
48810;BME280;40070;47.322;18.784;2023-03-25T06:36:50;996.01;;;14.22;67.29
48810;BME280;40070;47.322;18.784;2023-03-25T06:38:51;996.07;;;14.02;67.82
48810;BME280;40070;47.322;18.784;2023-03-25T06:40:52;996.07;;;14.11;67.62
48810;BME280;40070;47.322;18.784;2023-03-25T06:42:53;996.08;;;14.44;66.61
48810;BME280;40070;47.322;18.784;2023-03-25T06:44:54;996.16;;;14.53;66.01
48810;BME280;40070;47.322;18.784;2023-03-25T06:46:55;996.19;;;14.70;65.93
48810;BME280;40070;47.322;18.784;2023-03-25T06:48:56;996.17;;;14.64;65.84
48810;BME280;40070;47.322;18.784;2023-03-25T06:50:57;996.16;;;14.68;66.02
48810;BME280;40070;47.322;18.784;2023-03-25T06:52:58;996.14;;;14.54;66.04
48810;BME280;40070;47.322;18.784;2023-03-25T06:54:58;996.17;;;14.54;65.93
48810;BME280;40070;47.322;18.784;2023-03-25T06:56:59;996.22;;;14.45;65.92
48810;BME280;40070;47.322;18.784;2023-03-25T06:59:00;996.29;;;14.71;65.45
48810;BME280;40070;47.322;18.784;2023-03-25T07:01:02;996.37;;;14.86;65.77
48810;BME280;40070;47.322;18.784;2023-03-25T07:03:03;996.33;;;15.13;65.31
48810;BME280;40070;47.322;18.784;2023-03-25T07:05:04;996.33;;;15.16;64.50
48810;BME280;40070;47.322;18.784;2023-03-25T07:07:05;996.33;;;15.09;63.47
48810;BME280;40070;47.322;18.784;2023-03-25T07:09:06;996.35;;;14.66;64.42
48810;BME280;40070;47.322;18.784;2023-03-25T07:11:08;996.35;;;14.80;64.21
48810;BME280;40070;47.322;18.784;2023-03-25T07:13:10;996.44;;;14.92;63.83
48810;BME280;40070;47.322;18.784;2023-03-25T07:15:11;996.47;;;14.67;64.74
48810;BME280;40070;47.322;18.784;2023-03-25T07:17:11;996.53;;;14.60;64.81
48810;BME280;40070;47.322;18.784;2023-03-25T07:19:12;996.54;;;14.78;64.40
48810;BME280;40070;47.322;18.784;2023-03-25T07:21:13;996.55;;;14.68;64.32
48810;BME280;40070;47.322;18.784;2023-03-25T07:23:14;996.56;;;14.66;63.66
48810;BME280;40070;47.322;18.784;2023-03-25T07:25:15;996.50;;;14.73;62.83
48810;BME280;40070;47.322;18.784;2023-03-25T07:27:16;996.46;;;14.43;64.13
48810;BME280;40070;47.322;18.784;2023-03-25T07:29:17;996.48;;;14.53;62.90
48810;BME280;40070;47.322;18.784;2023-03-25T07:31:18;996.53;;;14.55;63.56
48810;BME280;40070;47.322;18.784;2023-03-25T07:33:19;996.57;;;14.59;62.83
48810;BME280;40070;47.322;18.784;2023-03-25T07:35:20;996.59;;;14.59;61.76
48810;BME280;40070;47.322;18.784;2023-03-25T07:37:21;996.58;;;14.41;62.43
48810;BME280;40070;47.322;18.784;2023-03-25T07:39:22;996.50;;;14.32;63.10
48810;BME280;40070;47.322;18.784;2023-03-25T07:41:23;996.50;;;14.41;62.80
48810;BME280;40070;47.322;18.784;2023-03-25T07:43:24;996.36;;;14.48;62.69
48810;BME280;40070;47.322;18.784;2023-03-25T07:45:25;996.32;;;14.39;61.78
48810;BME280;40070;47.322;18.784;2023-03-25T07:47:26;996.32;;;14.73;61.70
48810;BME280;40070;47.322;18.784;2023-03-25T07:49:27;996.32;;;14.91;61.68
48810;BME280;40070;47.322;18.784;2023-03-25T07:51:27;996.34;;;15.16;61.57
48810;BME280;40070;47.322;18.784;2023-03-25T07:53:28;996.39;;;15.16;61.58
48810;BME280;40070;47.322;18.784;2023-03-25T07:55:29;996.38;;;15.23;61.01
48810;BME280;40070;47.322;18.784;2023-03-25T07:57:30;996.36;;;15.04;61.13
48810;BME280;40070;47.322;18.784;2023-03-25T07:59:31;996.36;;;15.38;60.92
48810;BME280;40070;47.322;18.784;2023-03-25T08:01:32;996.34;;;15.52;59.65
48810;BME280;40070;47.322;18.784;2023-03-25T08:03:33;996.34;;;15.67;58.94
48810;BME280;40070;47.322;18.784;2023-03-25T08:05:34;996.27;;;15.66;58.49
48810;BME280;40070;47.322;18.784;2023-03-25T08:07:35;996.34;;;15.56;58.78
48810;BME280;40070;47.322;18.784;2023-03-25T08:09:37;996.36;;;15.64;57.82
48810;BME280;40070;47.322;18.784;2023-03-25T08:11:37;996.29;;;15.85;57.27
48810;BME280;40070;47.322;18.784;2023-03-25T08:13:38;996.29;;;15.70;56.91
48810;BME280;40070;47.322;18.784;2023-03-25T08:15:39;996.27;;;15.85;57.19
48810;BME280;40070;47.322;18.784;2023-03-25T08:17:40;996.24;;;15.64;56.36
48810;BME280;40070;47.322;18.784;2023-03-25T08:19:41;996.25;;;15.73;56.39
48810;BME280;40070;47.322;18.784;2023-03-25T08:21:42;996.19;;;15.86;57.13
48810;BME280;40070;47.322;18.784;2023-03-25T08:23:43;996.22;;;16.17;56.11
48810;BME280;40070;47.322;18.784;2023-03-25T08:25:45;996.18;;;16.30;55.72
48810;BME280;40070;47.322;18.784;2023-03-25T08:27:46;996.18;;;16.40;54.03
48810;BME280;40070;47.322;18.784;2023-03-25T08:29:47;996.10;;;16.68;53.88
48810;BME280;40070;47.322;18.784;2023-03-25T08:31:48;996.10;;;16.77;54.18
48810;BME280;40070;47.322;18.784;2023-03-25T08:33:49;996.01;;;17.01;53.82
48810;BME280;40070;47.322;18.784;2023-03-25T08:35:50;996.13;;;16.78;53.40
48810;BME280;40070;47.322;18.784;2023-03-25T08:37:51;996.05;;;16.86;53.11
48810;BME280;40070;47.322;18.784;2023-03-25T08:39:52;996.14;;;16.82;52.89
48810;BME280;40070;47.322;18.784;2023-03-25T08:41:53;996.10;;;16.75;53.01
48810;BME280;40070;47.322;18.784;2023-03-25T08:43:53;996.15;;;16.65;53.31
48810;BME280;40070;47.322;18.784;2023-03-25T08:45:54;996.10;;;16.43;52.99
48810;BME280;40070;47.322;18.784;2023-03-25T08:47:55;996.11;;;16.74;52.85
48810;BME280;40070;47.322;18.784;2023-03-25T08:49:56;996.16;;;16.86;52.24
48810;BME280;40070;47.322;18.784;2023-03-25T08:51:57;996.01;;;16.98;52.13
48810;BME280;40070;47.322;18.784;2023-03-25T08:53:58;996.04;;;17.09;52.44
48810;BME280;40070;47.322;18.784;2023-03-25T08:55:59;996.00;;;17.26;51.39
48810;BME280;40070;47.322;18.784;2023-03-25T08:58:00;995.89;;;17.25;50.57
48810;BME280;40070;47.322;18.784;2023-03-25T09:00:02;995.96;;;17.30;51.57
48810;BME280;40070;47.322;18.784;2023-03-25T09:02:03;995.96;;;17.48;50.60
48810;BME280;40070;47.322;18.784;2023-03-25T09:04:04;996.00;;;17.44;49.73
48810;BME280;40070;47.322;18.784;2023-03-25T09:06:05;995.96;;;17.40;49.22
48810;BME280;40070;47.322;18.784;2023-03-25T09:08:06;995.99;;;17.77;49.90
48810;BME280;40070;47.322;18.784;2023-03-25T09:10:07;996.01;;;17.86;49.19
48810;BME280;40070;47.322;18.784;2023-03-25T09:12:08;996.03;;;18.04;48.47
48810;BME280;40070;47.322;18.784;2023-03-25T09:14:09;996.07;;;18.42;48.20
48810;BME280;40070;47.322;18.784;2023-03-25T09:16:10;996.07;;;18.44;48.10
48810;BME280;40070;47.322;18.784;2023-03-25T09:18:11;996.17;;;18.26;47.57
48810;BME280;40070;47.322;18.784;2023-03-25T09:20:12;996.20;;;18.26;48.23
48810;BME280;40070;47.322;18.784;2023-03-25T09:22:13;996.21;;;18.38;46.54
48810;BME280;40070;47.322;18.784;2023-03-25T09:24:14;996.22;;;18.31;47.10
48810;BME280;40070;47.322;18.784;2023-03-25T09:26:15;996.14;;;18.34;47.22
48810;BME280;40070;47.322;18.784;2023-03-25T09:28:16;996.10;;;18.38;46.15
48810;BME280;40070;47.322;18.784;2023-03-25T09:30:16;996.10;;;18.25;46.16
48810;BME280;40070;47.322;18.784;2023-03-25T09:32:17;996.10;;;18.55;46.31
48810;BME280;40070;47.322;18.784;2023-03-25T09:34:18;996.15;;;18.49;46.72
48810;BME280;40070;47.322;18.784;2023-03-25T09:36:19;996.15;;;18.59;45.71
48810;BME280;40070;47.322;18.784;2023-03-25T09:38:20;996.17;;;18.34;46.82
48810;BME280;40070;47.322;18.784;2023-03-25T09:40:21;996.20;;;18.47;45.49
48810;BME280;40070;47.322;18.784;2023-03-25T09:42:29;996.17;;;18.03;45.79
48810;BME280;40070;47.322;18.784;2023-03-25T09:45:18;996.18;;;18.22;44.90
48810;BME280;40070;47.322;18.784;2023-03-25T09:46:49;996.16;;;18.54;45.42
48810;BME280;40070;47.322;18.784;2023-03-25T09:48:50;996.18;;;19.01;45.10
48810;BME280;40070;47.322;18.784;2023-03-25T09:50:52;996.19;;;19.14;45.29
48810;BME280;40070;47.322;18.784;2023-03-25T09:52:58;996.16;;;19.21;45.33
48810;BME280;40070;47.322;18.784;2023-03-25T09:55:04;996.20;;;19.54;44.89
48810;BME280;40070;47.322;18.784;2023-03-25T09:57:06;996.15;;;20.09;43.38
48810;BME280;40070;47.322;18.784;2023-03-25T10:08:24;996.24;;;18.16;46.67
48810;BME280;40070;47.322;18.784;2023-03-25T10:12:49;996.18;;;18.20;45.77
48810;BME280;40070;47.322;18.784;2023-03-25T10:15:02;996.17;;;18.13;45.35
48810;BME280;40070;47.322;18.784;2023-03-25T10:21:53;996.11;;;18.33;44.59
48810;BME280;40070;47.322;18.784;2023-03-25T10:26:16;995.98;;;18.57;43.90
48810;BME280;40070;47.322;18.784;2023-03-25T10:28:23;996.08;;;18.33;44.07
48810;BME280;40070;47.322;18.784;2023-03-25T10:30:29;996.11;;;18.07;44.63
48810;BME280;40070;47.322;18.784;2023-03-25T10:32:45;996.11;;;17.88;44.36
48810;BME280;40070;47.322;18.784;2023-03-25T10:34:50;996.05;;;17.69;44.38
48810;BME280;40070;47.322;18.784;2023-03-25T10:36:52;996.07;;;17.83;44.16
48810;BME280;40070;47.322;18.784;2023-03-25T10:38:53;996.13;;;17.64;42.78
48810;BME280;40070;47.322;18.784;2023-03-25T10:41:39;996.17;;;17.76;43.27
48810;BME280;40070;47.322;18.784;2023-03-25T10:43:23;996.14;;;17.83;42.61
48810;BME280;40070;47.322;18.784;2023-03-25T10:45:26;996.11;;;17.95;43.31
48810;BME280;40070;47.322;18.784;2023-03-25T10:47:29;996.13;;;18.12;42.24
48810;BME280;40070;47.322;18.784;2023-03-25T10:49:30;996.26;;;18.18;42.55
48810;BME280;40070;47.322;18.784;2023-03-25T10:51:32;996.18;;;17.83;41.33
48810;BME280;40070;47.322;18.784;2023-03-25T10:53:34;996.12;;;17.66;40.90
48810;BME280;40070;47.322;18.784;2023-03-25T10:55:35;996.15;;;17.65;41.00
48810;BME280;40070;47.322;18.784;2023-03-25T10:57:37;996.21;;;17.40;42.51
48810;BME280;40070;47.322;18.784;2023-03-25T10:59:42;996.18;;;17.50;42.02
48810;BME280;40070;47.322;18.784;2023-03-25T11:01:44;996.22;;;17.75;42.08
48810;BME280;40070;47.322;18.784;2023-03-25T11:03:49;996.25;;;17.83;41.74
48810;BME280;40070;47.322;18.784;2023-03-25T11:05:50;996.19;;;18.06;40.78
48810;BME280;40070;47.322;18.784;2023-03-25T11:07:55;996.20;;;18.08;39.98
48810;BME280;40070;47.322;18.784;2023-03-25T11:10:13;996.27;;;18.11;39.44
48810;BME280;40070;47.322;18.784;2023-03-25T11:12:16;996.20;;;18.07;39.42
48810;BME280;40070;47.322;18.784;2023-03-25T11:14:24;996.23;;;17.94;39.01
48810;BME280;40070;47.322;18.784;2023-03-25T11:16:25;996.31;;;17.98;38.69
48810;BME280;40070;47.322;18.784;2023-03-25T11:18:34;996.32;;;17.96;38.73
48810;BME280;40070;47.322;18.784;2023-03-25T11:20:37;996.37;;;17.81;38.88
48810;BME280;40070;47.322;18.784;2023-03-25T11:22:38;996.33;;;17.86;39.12
48810;BME280;40070;47.322;18.784;2023-03-25T11:24:46;996.44;;;17.82;38.85
48810;BME280;40070;47.322;18.784;2023-03-25T11:26:48;996.51;;;17.72;39.07
48810;BME280;40070;47.322;18.784;2023-03-25T11:28:50;996.52;;;17.41;39.33
48810;BME280;40070;47.322;18.784;2023-03-25T11:31:04;996.41;;;17.13;39.45